sensor_id;sensor_type;location;lat;lon;timestamp;temperature;humidity
5172;DHT22;2605;49.770;9.868;2023-08-01T00:02:11;16.30;99.90
5172;DHT22;2605;49.770;9.868;2023-08-01T00:04:37;16.30;99.90
5172;DHT22;2605;49.770;9.868;2023-08-01T00:07:02;16.30;99.90
5172;DHT22;2605;49.770;9.868;2023-08-01T00:09:28;16.30;99.90
5172;DHT22;2605;49.770;9.868;2023-08-01T00:11:53;16.30;99.90
5172;DHT22;2605;49.770;9.868;2023-08-01T00:14:20;16.30;99.90
5172;DHT22;2605;49.770;9.868;2023-08-01T00:16:49;16.30;99.90
5172;DHT22;2605;49.770;9.868;2023-08-01T00:19:15;16.30;99.90
5172;DHT22;2605;49.770;9.868;2023-08-01T00:21:40;16.20;99.90
5172;DHT22;2605;49.770;9.868;2023-08-01T00:24:06;16.30;99.90
5172;DHT22;2605;49.770;9.868;2023-08-01T00:26:33;16.20;99.90
5172;DHT22;2605;49.770;9.868;2023-08-01T00:28:59;16.20;99.90
5172;DHT22;2605;49.770;9.868;2023-08-01T00:31:24;16.20;99.90
5172;DHT22;2605;49.770;9.868;2023-08-01T00:33:50;16.20;99.90
5172;DHT22;2605;49.770;9.868;2023-08-01T00:36:15;16.20;99.90
5172;DHT22;2605;49.770;9.868;2023-08-01T00:38:41;16.20;99.90
5172;DHT22;2605;49.770;9.868;2023-08-01T00:41:08;16.20;99.90
5172;DHT22;2605;49.770;9.868;2023-08-01T00:43:34;16.20;99.90
5172;DHT22;2605;49.770;9.868;2023-08-01T00:46:00;16.20;99.90
5172;DHT22;2605;49.770;9.868;2023-08-01T00:48:28;16.30;99.90
5172;DHT22;2605;49.770;9.868;2023-08-01T00:50:54;16.30;99.90
5172;DHT22;2605;49.770;9.868;2023-08-01T00:53:21;16.20;99.90
5172;DHT22;2605;49.770;9.868;2023-08-01T00:55:47;16.20;99.90
5172;DHT22;2605;49.770;9.868;2023-08-01T00:58:13;16.20;99.90
5172;DHT22;2605;49.770;9.868;2023-08-01T01:00:38;16.20;99.90
5172;DHT22;2605;49.770;9.868;2023-08-01T01:03:05;16.20;99.90
5172;DHT22;2605;49.770;9.868;2023-08-01T01:05:36;16.50;99.90
5172;DHT22;2605;49.770;9.868;2023-08-01T01:08:03;16.20;99.90
5172;DHT22;2605;49.770;9.868;2023-08-01T01:10:29;16.20;99.90
5172;DHT22;2605;49.770;9.868;2023-08-01T01:13:04;16.20;99.90
5172;DHT22;2605;49.770;9.868;2023-08-01T01:15:29;16.20;99.90
5172;DHT22;2605;49.770;9.868;2023-08-01T01:17:55;16.20;99.90
5172;DHT22;2605;49.770;9.868;2023-08-01T01:20:25;16.20;99.90
5172;DHT22;2605;49.770;9.868;2023-08-01T01:22:54;16.30;99.90
5172;DHT22;2605;49.770;9.868;2023-08-01T01:25:21;16.20;99.90
5172;DHT22;2605;49.770;9.868;2023-08-01T01:27:49;16.30;99.90
5172;DHT22;2605;49.770;9.868;2023-08-01T01:30:16;16.20;99.90
5172;DHT22;2605;49.770;9.868;2023-08-01T01:32:43;16.20;99.90
5172;DHT22;2605;49.770;9.868;2023-08-01T01:35:09;16.20;99.90
5172;DHT22;2605;49.770;9.868;2023-08-01T01:37:35;16.20;99.90
5172;DHT22;2605;49.770;9.868;2023-08-01T01:40:00;16.20;99.90
5172;DHT22;2605;49.770;9.868;2023-08-01T01:42:26;16.20;99.90
5172;DHT22;2605;49.770;9.868;2023-08-01T01:44:51;16.10;99.90
5172;DHT22;2605;49.770;9.868;2023-08-01T01:47:17;16.20;99.90
5172;DHT22;2605;49.770;9.868;2023-08-01T01:49:43;16.20;99.90
5172;DHT22;2605;49.770;9.868;2023-08-01T01:52:08;16.10;99.90
5172;DHT22;2605;49.770;9.868;2023-08-01T01:54:33;16.20;99.90
5172;DHT22;2605;49.770;9.868;2023-08-01T01:56:59;16.10;99.90
5172;DHT22;2605;49.770;9.868;2023-08-01T01:59:24;16.20;99.90
5172;DHT22;2605;49.770;9.868;2023-08-01T02:01:50;16.20;99.90
5172;DHT22;2605;49.770;9.868;2023-08-01T02:04:15;16.20;99.90
5172;DHT22;2605;49.770;9.868;2023-08-01T02:06:41;16.20;99.90
5172;DHT22;2605;49.770;9.868;2023-08-01T02:09:07;16.30;99.90
5172;DHT22;2605;49.770;9.868;2023-08-01T02:11:32;16.30;99.90
5172;DHT22;2605;49.770;9.868;2023-08-01T02:13:57;16.30;99.90
5172;DHT22;2605;49.770;9.868;2023-08-01T02:16:23;16.20;99.90
5172;DHT22;2605;49.770;9.868;2023-08-01T02:18:48;16.30;99.90
5172;DHT22;2605;49.770;9.868;2023-08-01T02:21:14;16.20;99.90
5172;DHT22;2605;49.770;9.868;2023-08-01T02:23:39;16.20;99.90
5172;DHT22;2605;49.770;9.868;2023-08-01T02:26:05;16.20;99.90
5172;DHT22;2605;49.770;9.868;2023-08-01T02:28:33;16.20;99.90
5172;DHT22;2605;49.770;9.868;2023-08-01T02:30:59;16.20;99.90
5172;DHT22;2605;49.770;9.868;2023-08-01T02:33:24;16.20;99.90
5172;DHT22;2605;49.770;9.868;2023-08-01T02:35:50;16.20;99.90
5172;DHT22;2605;49.770;9.868;2023-08-01T02:38:15;16.20;99.90
5172;DHT22;2605;49.770;9.868;2023-08-01T02:40:41;16.20;99.90
5172;DHT22;2605;49.770;9.868;2023-08-01T02:43:06;16.20;99.90
5172;DHT22;2605;49.770;9.868;2023-08-01T02:45:32;16.10;99.90
5172;DHT22;2605;49.770;9.868;2023-08-01T02:47:57;16.20;99.90
5172;DHT22;2605;49.770;9.868;2023-08-01T02:50:23;16.20;99.90
5172;DHT22;2605;49.770;9.868;2023-08-01T02:52:48;16.20;99.90
5172;DHT22;2605;49.770;9.868;2023-08-01T02:55:14;16.20;99.90
5172;DHT22;2605;49.770;9.868;2023-08-01T02:57:39;16.20;99.90
5172;DHT22;2605;49.770;9.868;2023-08-01T03:00:05;16.20;99.90
5172;DHT22;2605;49.770;9.868;2023-08-01T03:02:31;16.20;99.90
5172;DHT22;2605;49.770;9.868;2023-08-01T03:05:00;16.20;99.90
5172;DHT22;2605;49.770;9.868;2023-08-01T03:07:25;16.10;99.90
5172;DHT22;2605;49.770;9.868;2023-08-01T03:09:51;16.10;99.90
5172;DHT22;2605;49.770;9.868;2023-08-01T03:12:16;16.20;99.90
5172;DHT22;2605;49.770;9.868;2023-08-01T03:14:42;16.20;99.90
5172;DHT22;2605;49.770;9.868;2023-08-01T03:17:08;16.20;99.90
5172;DHT22;2605;49.770;9.868;2023-08-01T03:19:34;16.20;99.90
5172;DHT22;2605;49.770;9.868;2023-08-01T03:22:00;16.10;99.90
5172;DHT22;2605;49.770;9.868;2023-08-01T03:24:25;16.10;99.90
5172;DHT22;2605;49.770;9.868;2023-08-01T03:26:54;16.10;99.90
5172;DHT22;2605;49.770;9.868;2023-08-01T03:29:19;16.10;99.90
5172;DHT22;2605;49.770;9.868;2023-08-01T03:31:48;16.10;99.90
5172;DHT22;2605;49.770;9.868;2023-08-01T03:34:13;16.10;99.90
5172;DHT22;2605;49.770;9.868;2023-08-01T03:36:39;16.10;99.90
5172;DHT22;2605;49.770;9.868;2023-08-01T03:39:04;16.10;99.90
5172;DHT22;2605;49.770;9.868;2023-08-01T03:41:31;16.10;99.90
5172;DHT22;2605;49.770;9.868;2023-08-01T03:43:56;16.10;99.90
5172;DHT22;2605;49.770;9.868;2023-08-01T03:46:22;16.10;99.90
5172;DHT22;2605;49.770;9.868;2023-08-01T03:48:47;16.10;99.90
5172;DHT22;2605;49.770;9.868;2023-08-01T03:51:13;16.10;99.90
5172;DHT22;2605;49.770;9.868;2023-08-01T03:53:40;16.10;99.90
5172;DHT22;2605;49.770;9.868;2023-08-01T03:56:07;16.10;99.90
5172;DHT22;2605;49.770;9.868;2023-08-01T03:58:32;16.10;99.90
5172;DHT22;2605;49.770;9.868;2023-08-01T04:00:58;16.10;99.90
5172;DHT22;2605;49.770;9.868;2023-08-01T04:03:23;16.20;99.90
5172;DHT22;2605;49.770;9.868;2023-08-01T04:05:52;16.20;99.90
5172;DHT22;2605;49.770;9.868;2023-08-01T04:08:17;16.20;99.90
5172;DHT22;2605;49.770;9.868;2023-08-01T04:10:42;16.20;99.90
5172;DHT22;2605;49.770;9.868;2023-08-01T04:13:08;16.20;99.90
5172;DHT22;2605;49.770;9.868;2023-08-01T04:15:34;16.20;99.90
5172;DHT22;2605;49.770;9.868;2023-08-01T04:17:59;16.20;99.90
5172;DHT22;2605;49.770;9.868;2023-08-01T04:20:25;16.20;99.90
5172;DHT22;2605;49.770;9.868;2023-08-01T04:22:50;16.20;99.90
5172;DHT22;2605;49.770;9.868;2023-08-01T04:25:16;16.20;99.90
5172;DHT22;2605;49.770;9.868;2023-08-01T04:27:41;16.20;99.90
5172;DHT22;2605;49.770;9.868;2023-08-01T04:30:07;16.20;99.90
5172;DHT22;2605;49.770;9.868;2023-08-01T04:32:33;16.20;99.90
5172;DHT22;2605;49.770;9.868;2023-08-01T04:34:58;16.20;99.90
5172;DHT22;2605;49.770;9.868;2023-08-01T04:37:24;16.20;99.90
5172;DHT22;2605;49.770;9.868;2023-08-01T04:39:51;16.20;99.90
5172;DHT22;2605;49.770;9.868;2023-08-01T04:42:16;16.20;99.90
5172;DHT22;2605;49.770;9.868;2023-08-01T04:44:42;16.20;99.90
5172;DHT22;2605;49.770;9.868;2023-08-01T04:47:07;16.10;99.90
5172;DHT22;2605;49.770;9.868;2023-08-01T04:49:33;16.10;99.90
5172;DHT22;2605;49.770;9.868;2023-08-01T04:51:58;16.10;99.90
5172;DHT22;2605;49.770;9.868;2023-08-01T04:54:24;16.10;99.90
5172;DHT22;2605;49.770;9.868;2023-08-01T04:56:49;16.10;99.90
5172;DHT22;2605;49.770;9.868;2023-08-01T04:59:15;16.10;99.90
5172;DHT22;2605;49.770;9.868;2023-08-01T05:01:40;16.10;99.90
5172;DHT22;2605;49.770;9.868;2023-08-01T05:04:06;16.10;99.90
5172;DHT22;2605;49.770;9.868;2023-08-01T05:06:31;16.10;99.90
5172;DHT22;2605;49.770;9.868;2023-08-01T05:08:57;16.10;99.90
5172;DHT22;2605;49.770;9.868;2023-08-01T05:11:22;16.00;99.90
5172;DHT22;2605;49.770;9.868;2023-08-01T05:13:51;16.10;99.90
5172;DHT22;2605;49.770;9.868;2023-08-01T05:16:17;16.10;99.90
5172;DHT22;2605;49.770;9.868;2023-08-01T05:18:42;16.00;99.90
5172;DHT22;2605;49.770;9.868;2023-08-01T05:21:08;16.10;99.90
5172;DHT22;2605;49.770;9.868;2023-08-01T05:23:36;16.00;99.90
5172;DHT22;2605;49.770;9.868;2023-08-01T05:26:01;16.10;99.90
5172;DHT22;2605;49.770;9.868;2023-08-01T05:28:27;16.00;99.90
5172;DHT22;2605;49.770;9.868;2023-08-01T05:30:53;16.00;99.90
5172;DHT22;2605;49.770;9.868;2023-08-01T05:33:18;16.00;99.90
5172;DHT22;2605;49.770;9.868;2023-08-01T05:35:44;16.00;99.90
5172;DHT22;2605;49.770;9.868;2023-08-01T05:38:09;16.00;99.90
5172;DHT22;2605;49.770;9.868;2023-08-01T05:40:35;16.00;99.90
5172;DHT22;2605;49.770;9.868;2023-08-01T05:43:00;16.10;99.90
5172;DHT22;2605;49.770;9.868;2023-08-01T05:45:26;16.10;99.90
5172;DHT22;2605;49.770;9.868;2023-08-01T05:47:52;16.10;99.90
5172;DHT22;2605;49.770;9.868;2023-08-01T05:50:17;16.20;99.90
5172;DHT22;2605;49.770;9.868;2023-08-01T05:52:43;16.20;99.90
5172;DHT22;2605;49.770;9.868;2023-08-01T05:55:09;16.20;99.90
5172;DHT22;2605;49.770;9.868;2023-08-01T05:57:35;16.30;99.90
5172;DHT22;2605;49.770;9.868;2023-08-01T06:00:00;16.30;99.90
5172;DHT22;2605;49.770;9.868;2023-08-01T06:02:26;16.30;99.90
5172;DHT22;2605;49.770;9.868;2023-08-01T06:04:51;16.20;99.90
5172;DHT22;2605;49.770;9.868;2023-08-01T06:07:17;16.20;99.90
5172;DHT22;2605;49.770;9.868;2023-08-01T06:09:50;16.20;99.90
5172;DHT22;2605;49.770;9.868;2023-08-01T06:12:19;16.20;99.90
5172;DHT22;2605;49.770;9.868;2023-08-01T06:14:45;16.20;99.90
5172;DHT22;2605;49.770;9.868;2023-08-01T06:17:11;16.30;99.90
5172;DHT22;2605;49.770;9.868;2023-08-01T06:19:37;16.30;99.90
5172;DHT22;2605;49.770;9.868;2023-08-01T06:22:02;16.30;99.90
5172;DHT22;2605;49.770;9.868;2023-08-01T06:24:28;16.30;99.90
5172;DHT22;2605;49.770;9.868;2023-08-01T06:26:53;16.20;99.90
5172;DHT22;2605;49.770;9.868;2023-08-01T06:29:19;16.30;99.90
5172;DHT22;2605;49.770;9.868;2023-08-01T06:31:44;16.30;99.90
5172;DHT22;2605;49.770;9.868;2023-08-01T06:34:10;16.30;99.90
5172;DHT22;2605;49.770;9.868;2023-08-01T06:36:35;16.30;99.90
5172;DHT22;2605;49.770;9.868;2023-08-01T06:39:01;16.30;99.90
5172;DHT22;2605;49.770;9.868;2023-08-01T06:41:27;16.40;99.90
5172;DHT22;2605;49.770;9.868;2023-08-01T06:43:52;16.40;99.90
5172;DHT22;2605;49.770;9.868;2023-08-01T06:46:18;16.40;99.90
5172;DHT22;2605;49.770;9.868;2023-08-01T06:48:43;16.40;99.90
5172;DHT22;2605;49.770;9.868;2023-08-01T06:51:09;16.50;99.90
5172;DHT22;2605;49.770;9.868;2023-08-01T06:53:34;16.60;99.90
5172;DHT22;2605;49.770;9.868;2023-08-01T06:56:00;16.60;99.90
5172;DHT22;2605;49.770;9.868;2023-08-01T06:58:25;16.70;99.90
5172;DHT22;2605;49.770;9.868;2023-08-01T07:00:51;16.70;99.90
5172;DHT22;2605;49.770;9.868;2023-08-01T07:03:16;16.60;99.90
5172;DHT22;2605;49.770;9.868;2023-08-01T07:05:42;16.50;99.90
5172;DHT22;2605;49.770;9.868;2023-08-01T07:08:08;16.50;99.90
5172;DHT22;2605;49.770;9.868;2023-08-01T07:10:36;16.40;99.90
5172;DHT22;2605;49.770;9.868;2023-08-01T07:13:03;16.30;99.90
5172;DHT22;2605;49.770;9.868;2023-08-01T07:15:34;16.20;99.90
5172;DHT22;2605;49.770;9.868;2023-08-01T07:18:00;16.20;99.90
5172;DHT22;2605;49.770;9.868;2023-08-01T07:20:25;16.30;99.90
5172;DHT22;2605;49.770;9.868;2023-08-01T07:22:51;16.30;99.90
5172;DHT22;2605;49.770;9.868;2023-08-01T07:25:16;16.50;99.90
5172;DHT22;2605;49.770;9.868;2023-08-01T07:27:42;16.60;99.90
5172;DHT22;2605;49.770;9.868;2023-08-01T07:30:08;16.70;99.90
5172;DHT22;2605;49.770;9.868;2023-08-01T07:32:35;16.70;99.90
5172;DHT22;2605;49.770;9.868;2023-08-01T07:35:03;16.80;99.90
5172;DHT22;2605;49.770;9.868;2023-08-01T07:37:29;16.80;99.90
5172;DHT22;2605;49.770;9.868;2023-08-01T07:39:55;16.80;99.90
5172;DHT22;2605;49.770;9.868;2023-08-01T07:42:21;16.80;99.90
5172;DHT22;2605;49.770;9.868;2023-08-01T07:44:47;16.80;99.90
5172;DHT22;2605;49.770;9.868;2023-08-01T07:47:12;16.80;99.90
5172;DHT22;2605;49.770;9.868;2023-08-01T07:49:38;16.90;99.90
5172;DHT22;2605;49.770;9.868;2023-08-01T07:52:04;16.80;99.90
5172;DHT22;2605;49.770;9.868;2023-08-01T07:54:29;16.80;99.90
5172;DHT22;2605;49.770;9.868;2023-08-01T07:56:58;17.00;99.90
5172;DHT22;2605;49.770;9.868;2023-08-01T07:59:23;17.20;99.90
5172;DHT22;2605;49.770;9.868;2023-08-01T08:01:49;17.50;99.90
5172;DHT22;2605;49.770;9.868;2023-08-01T08:04:14;17.70;99.90
5172;DHT22;2605;49.770;9.868;2023-08-01T08:06:40;18.10;99.90
5172;DHT22;2605;49.770;9.868;2023-08-01T08:09:06;18.40;99.90
5172;DHT22;2605;49.770;9.868;2023-08-01T08:11:32;18.70;99.90
5172;DHT22;2605;49.770;9.868;2023-08-01T08:13:59;18.80;99.90
5172;DHT22;2605;49.770;9.868;2023-08-01T08:16:24;18.80;99.90
5172;DHT22;2605;49.770;9.868;2023-08-01T08:18:50;18.70;99.90
5172;DHT22;2605;49.770;9.868;2023-08-01T08:21:15;18.50;99.90
5172;DHT22;2605;49.770;9.868;2023-08-01T08:23:41;18.30;99.90
5172;DHT22;2605;49.770;9.868;2023-08-01T08:26:06;18.10;99.90
5172;DHT22;2605;49.770;9.868;2023-08-01T08:28:33;18.10;99.90
5172;DHT22;2605;49.770;9.868;2023-08-01T08:30:59;18.00;99.90
5172;DHT22;2605;49.770;9.868;2023-08-01T08:33:25;17.90;99.90
5172;DHT22;2605;49.770;9.868;2023-08-01T08:35:51;17.70;99.90
5172;DHT22;2605;49.770;9.868;2023-08-01T08:38:17;17.80;99.90
5172;DHT22;2605;49.770;9.868;2023-08-01T08:41:05;17.70;99.90
5172;DHT22;2605;49.770;9.868;2023-08-01T08:43:33;17.80;99.90
5172;DHT22;2605;49.770;9.868;2023-08-01T08:46:01;17.90;99.90
5172;DHT22;2605;49.770;9.868;2023-08-01T08:48:26;18.00;99.90
5172;DHT22;2605;49.770;9.868;2023-08-01T08:50:58;17.90;99.90
5172;DHT22;2605;49.770;9.868;2023-08-01T08:53:25;18.00;99.90
5172;DHT22;2605;49.770;9.868;2023-08-01T08:55:51;18.10;99.90
5172;DHT22;2605;49.770;9.868;2023-08-01T08:58:16;18.10;99.90
5172;DHT22;2605;49.770;9.868;2023-08-01T09:00:43;18.10;99.90
5172;DHT22;2605;49.770;9.868;2023-08-01T09:03:09;17.90;99.90
5172;DHT22;2605;49.770;9.868;2023-08-01T09:05:43;18.00;99.90
5172;DHT22;2605;49.770;9.868;2023-08-01T09:08:15;18.00;99.90
5172;DHT22;2605;49.770;9.868;2023-08-01T09:10:41;18.00;99.90
5172;DHT22;2605;49.770;9.868;2023-08-01T09:13:07;17.80;99.90
5172;DHT22;2605;49.770;9.868;2023-08-01T09:15:34;17.70;99.90
5172;DHT22;2605;49.770;9.868;2023-08-01T09:17:59;17.60;99.90
5172;DHT22;2605;49.770;9.868;2023-08-01T09:20:28;17.70;99.90
5172;DHT22;2605;49.770;9.868;2023-08-01T09:22:53;18.10;99.90
5172;DHT22;2605;49.770;9.868;2023-08-01T09:25:31;18.20;99.90
5172;DHT22;2605;49.770;9.868;2023-08-01T09:27:57;17.20;99.90
5172;DHT22;2605;49.770;9.868;2023-08-01T09:30:23;16.00;99.90
5172;DHT22;2605;49.770;9.868;2023-08-01T09:32:52;15.20;99.90
5172;DHT22;2605;49.770;9.868;2023-08-01T09:35:18;14.70;99.90
5172;DHT22;2605;49.770;9.868;2023-08-01T09:37:43;14.40;99.90
5172;DHT22;2605;49.770;9.868;2023-08-01T09:40:10;14.30;99.90
5172;DHT22;2605;49.770;9.868;2023-08-01T09:42:42;14.30;99.90
5172;DHT22;2605;49.770;9.868;2023-08-01T09:45:15;14.30;99.90
5172;DHT22;2605;49.770;9.868;2023-08-01T09:47:42;14.40;99.90
5172;DHT22;2605;49.770;9.868;2023-08-01T09:50:18;14.50;99.90
5172;DHT22;2605;49.770;9.868;2023-08-01T09:52:46;14.60;99.90
5172;DHT22;2605;49.770;9.868;2023-08-01T09:55:23;14.90;99.90
5172;DHT22;2605;49.770;9.868;2023-08-01T09:57:50;15.10;99.90
5172;DHT22;2605;49.770;9.868;2023-08-01T10:00:16;15.40;99.90
5172;DHT22;2605;49.770;9.868;2023-08-01T10:02:43;15.60;99.90
5172;DHT22;2605;49.770;9.868;2023-08-01T10:05:08;15.80;99.90
5172;DHT22;2605;49.770;9.868;2023-08-01T10:07:38;16.00;99.90
5172;DHT22;2605;49.770;9.868;2023-08-01T10:10:06;16.30;99.90
5172;DHT22;2605;49.770;9.868;2023-08-01T10:12:32;16.60;99.90
5172;DHT22;2605;49.770;9.868;2023-08-01T10:14:58;17.10;99.90
5172;DHT22;2605;49.770;9.868;2023-08-01T10:17:25;17.40;99.90
5172;DHT22;2605;49.770;9.868;2023-08-01T10:19:52;17.60;99.90
5172;DHT22;2605;49.770;9.868;2023-08-01T10:22:19;17.80;99.90
5172;DHT22;2605;49.770;9.868;2023-08-01T10:24:45;18.40;99.90
5172;DHT22;2605;49.770;9.868;2023-08-01T10:27:18;18.30;99.90
5172;DHT22;2605;49.770;9.868;2023-08-01T10:29:44;18.30;99.90
5172;DHT22;2605;49.770;9.868;2023-08-01T10:32:11;18.50;99.90
5172;DHT22;2605;49.770;9.868;2023-08-01T10:34:37;18.40;99.90
5172;DHT22;2605;49.770;9.868;2023-08-01T10:37:02;18.10;99.90
5172;DHT22;2605;49.770;9.868;2023-08-01T10:39:28;17.80;99.90
5172;DHT22;2605;49.770;9.868;2023-08-01T10:42:04;17.70;99.90
5172;DHT22;2605;49.770;9.868;2023-08-01T10:44:31;17.70;99.90
5172;DHT22;2605;49.770;9.868;2023-08-01T10:47:03;17.60;99.90
5172;DHT22;2605;49.770;9.868;2023-08-01T10:49:40;17.80;99.90
5172;DHT22;2605;49.770;9.868;2023-08-01T10:52:19;17.90;99.90
5172;DHT22;2605;49.770;9.868;2023-08-01T10:54:45;17.70;99.90
5172;DHT22;2605;49.770;9.868;2023-08-01T10:57:17;17.70;99.90
5172;DHT22;2605;49.770;9.868;2023-08-01T10:59:43;17.80;99.90
5172;DHT22;2605;49.770;9.868;2023-08-01T11:02:09;17.70;99.90
5172;DHT22;2605;49.770;9.868;2023-08-01T11:04:35;17.80;99.90
5172;DHT22;2605;49.770;9.868;2023-08-01T11:07:01;17.80;99.90
5172;DHT22;2605;49.770;9.868;2023-08-01T11:09:28;17.60;99.90
5172;DHT22;2605;49.770;9.868;2023-08-01T11:11:58;17.70;99.90
5172;DHT22;2605;49.770;9.868;2023-08-01T11:14:26;17.70;99.90
5172;DHT22;2605;49.770;9.868;2023-08-01T11:16:54;18.00;99.90
5172;DHT22;2605;49.770;9.868;2023-08-01T11:19:24;18.10;99.90
5172;DHT22;2605;49.770;9.868;2023-08-01T11:21:51;18.20;99.90
5172;DHT22;2605;49.770;9.868;2023-08-01T11:24:18;18.60;99.90
5172;DHT22;2605;49.770;9.868;2023-08-01T11:26:48;19.10;99.90
5172;DHT22;2605;49.770;9.868;2023-08-01T11:29:15;19.50;99.90
5172;DHT22;2605;49.770;9.868;2023-08-01T11:31:41;19.60;99.90
5172;DHT22;2605;49.770;9.868;2023-08-01T11:34:07;19.90;99.90
5172;DHT22;2605;49.770;9.868;2023-08-01T11:36:36;20.30;99.90
5172;DHT22;2605;49.770;9.868;2023-08-01T11:39:02;20.10;99.90
5172;DHT22;2605;49.770;9.868;2023-08-01T11:41:29;20.00;99.90
5172;DHT22;2605;49.770;9.868;2023-08-01T11:43:57;20.00;99.90
5172;DHT22;2605;49.770;9.868;2023-08-01T11:46:31;20.30;99.90
5172;DHT22;2605;49.770;9.868;2023-08-01T11:48:58;20.60;99.90
5172;DHT22;2605;49.770;9.868;2023-08-01T11:51:25;20.40;99.90
5172;DHT22;2605;49.770;9.868;2023-08-01T11:54:00;20.60;99.90
5172;DHT22;2605;49.770;9.868;2023-08-01T11:56:26;21.10;99.90
5172;DHT22;2605;49.770;9.868;2023-08-01T11:58:52;21.30;99.90
5172;DHT22;2605;49.770;9.868;2023-08-01T12:01:18;21.60;99.90
5172;DHT22;2605;49.770;9.868;2023-08-01T12:03:44;21.30;99.90
5172;DHT22;2605;49.770;9.868;2023-08-01T12:06:10;21.60;99.90
5172;DHT22;2605;49.770;9.868;2023-08-01T12:08:38;21.70;99.90
5172;DHT22;2605;49.770;9.868;2023-08-01T12:11:03;22.00;99.90
5172;DHT22;2605;49.770;9.868;2023-08-01T12:13:29;21.90;99.90
5172;DHT22;2605;49.770;9.868;2023-08-01T12:15:56;22.00;99.90
5172;DHT22;2605;49.770;9.868;2023-08-01T12:18:23;22.30;99.90
5172;DHT22;2605;49.770;9.868;2023-08-01T12:20:49;22.40;99.90
5172;DHT22;2605;49.770;9.868;2023-08-01T12:23:15;22.70;99.90
5172;DHT22;2605;49.770;9.868;2023-08-01T12:25:40;22.80;99.90
5172;DHT22;2605;49.770;9.868;2023-08-01T12:28:09;21.70;99.90
5172;DHT22;2605;49.770;9.868;2023-08-01T12:30:35;21.00;99.90
5172;DHT22;2605;49.770;9.868;2023-08-01T12:33:00;20.70;99.90
5172;DHT22;2605;49.770;9.868;2023-08-01T12:35:26;20.50;99.90
5172;DHT22;2605;49.770;9.868;2023-08-01T12:37:53;20.60;99.90
5172;DHT22;2605;49.770;9.868;2023-08-01T12:40:19;20.80;99.90
5172;DHT22;2605;49.770;9.868;2023-08-01T12:42:44;21.30;99.90
5172;DHT22;2605;49.770;9.868;2023-08-01T12:45:10;21.70;99.90
5172;DHT22;2605;49.770;9.868;2023-08-01T12:47:35;21.60;99.90
5172;DHT22;2605;49.770;9.868;2023-08-01T12:50:01;21.30;99.90
5172;DHT22;2605;49.770;9.868;2023-08-01T12:52:26;21.40;99.90
5172;DHT22;2605;49.770;9.868;2023-08-01T12:54:52;21.60;99.90
5172;DHT22;2605;49.770;9.868;2023-08-01T12:57:21;21.60;99.90
5172;DHT22;2605;49.770;9.868;2023-08-01T12:59:46;21.90;99.90
5172;DHT22;2605;49.770;9.868;2023-08-01T13:02:13;22.30;99.90
5172;DHT22;2605;49.770;9.868;2023-08-01T13:04:42;22.30;99.90
5172;DHT22;2605;49.770;9.868;2023-08-01T13:07:10;22.40;99.90
5172;DHT22;2605;49.770;9.868;2023-08-01T13:09:36;22.10;99.90
5172;DHT22;2605;49.770;9.868;2023-08-01T13:12:01;22.00;99.90
5172;DHT22;2605;49.770;9.868;2023-08-01T13:14:27;21.70;99.90
5172;DHT22;2605;49.770;9.868;2023-08-01T13:16:53;21.80;99.90
5172;DHT22;2605;49.770;9.868;2023-08-01T13:19:18;21.70;99.90
5172;DHT22;2605;49.770;9.868;2023-08-01T13:21:44;21.50;99.90
5172;DHT22;2605;49.770;9.868;2023-08-01T13:24:09;21.60;99.90
5172;DHT22;2605;49.770;9.868;2023-08-01T13:26:35;21.80;99.90
5172;DHT22;2605;49.770;9.868;2023-08-01T13:29:01;21.90;99.90
5172;DHT22;2605;49.770;9.868;2023-08-01T13:31:30;22.10;99.90
5172;DHT22;2605;49.770;9.868;2023-08-01T13:33:55;21.90;99.90
5172;DHT22;2605;49.770;9.868;2023-08-01T13:36:21;21.60;99.90
5172;DHT22;2605;49.770;9.868;2023-08-01T13:38:47;21.20;99.90
5172;DHT22;2605;49.770;9.868;2023-08-01T13:41:14;21.20;99.90
5172;DHT22;2605;49.770;9.868;2023-08-01T13:43:39;21.10;99.90
5172;DHT22;2605;49.770;9.868;2023-08-01T13:46:15;21.20;99.90
5172;DHT22;2605;49.770;9.868;2023-08-01T13:48:41;21.40;99.90
5172;DHT22;2605;49.770;9.868;2023-08-01T13:51:07;21.20;99.90
5172;DHT22;2605;49.770;9.868;2023-08-01T13:53:32;21.00;99.90
5172;DHT22;2605;49.770;9.868;2023-08-01T13:55:59;20.70;99.90
5172;DHT22;2605;49.770;9.868;2023-08-01T13:58:24;20.70;99.90
5172;DHT22;2605;49.770;9.868;2023-08-01T14:00:50;20.80;99.90
5172;DHT22;2605;49.770;9.868;2023-08-01T14:03:15;21.00;99.90
5172;DHT22;2605;49.770;9.868;2023-08-01T14:05:41;23.50;99.90
5172;DHT22;2605;49.770;9.868;2023-08-01T14:08:06;25.40;99.90
5172;DHT22;2605;49.770;9.868;2023-08-01T14:10:32;25.60;99.90
5172;DHT22;2605;49.770;9.868;2023-08-01T14:12:57;24.70;99.90
5172;DHT22;2605;49.770;9.868;2023-08-01T14:15:23;23.70;99.90
5172;DHT22;2605;49.770;9.868;2023-08-01T14:17:48;22.70;99.90
5172;DHT22;2605;49.770;9.868;2023-08-01T14:20:14;22.20;99.90
5172;DHT22;2605;49.770;9.868;2023-08-01T14:22:41;25.00;99.90
5172;DHT22;2605;49.770;9.868;2023-08-01T14:25:08;26.10;99.90
5172;DHT22;2605;49.770;9.868;2023-08-01T14:27:34;27.40;99.90
5172;DHT22;2605;49.770;9.868;2023-08-01T14:30:00;27.50;99.90
5172;DHT22;2605;49.770;9.868;2023-08-01T14:32:25;28.00;99.90
5172;DHT22;2605;49.770;9.868;2023-08-01T14:34:54;25.80;99.90
5172;DHT22;2605;49.770;9.868;2023-08-01T14:37:19;23.80;99.90
5172;DHT22;2605;49.770;9.868;2023-08-01T14:39:49;22.20;99.90
5172;DHT22;2605;49.770;9.868;2023-08-01T14:42:15;21.40;99.90
5172;DHT22;2605;49.770;9.868;2023-08-01T14:44:43;21.10;99.90
5172;DHT22;2605;49.770;9.868;2023-08-01T14:47:09;20.80;99.90
5172;DHT22;2605;49.770;9.868;2023-08-01T14:49:34;20.80;99.90
5172;DHT22;2605;49.770;9.868;2023-08-01T14:52:00;20.80;99.90
5172;DHT22;2605;49.770;9.868;2023-08-01T14:54:25;21.50;99.90
5172;DHT22;2605;49.770;9.868;2023-08-01T14:56:51;22.10;99.90
5172;DHT22;2605;49.770;9.868;2023-08-01T14:59:17;21.80;99.90
5172;DHT22;2605;49.770;9.868;2023-08-01T15:01:42;23.70;99.90
5172;DHT22;2605;49.770;9.868;2023-08-01T15:04:08;23.70;99.90
5172;DHT22;2605;49.770;9.868;2023-08-01T15:06:33;22.60;99.90
5172;DHT22;2605;49.770;9.868;2023-08-01T15:08:59;21.70;99.90
5172;DHT22;2605;49.770;9.868;2023-08-01T15:11:24;21.00;99.90
5172;DHT22;2605;49.770;9.868;2023-08-01T15:13:50;20.80;99.90
5172;DHT22;2605;49.770;9.868;2023-08-01T15:16:15;20.60;99.90
5172;DHT22;2605;49.770;9.868;2023-08-01T15:18:41;20.60;99.90
5172;DHT22;2605;49.770;9.868;2023-08-01T15:21:06;22.70;99.90
5172;DHT22;2605;49.770;9.868;2023-08-01T15:23:32;25.00;99.90
5172;DHT22;2605;49.770;9.868;2023-08-01T15:25:58;26.70;99.90
5172;DHT22;2605;49.770;9.868;2023-08-01T15:28:25;27.90;99.90
5172;DHT22;2605;49.770;9.868;2023-08-01T15:31:08;27.40;99.90
5172;DHT22;2605;49.770;9.868;2023-08-01T15:33:38;28.50;99.90
5172;DHT22;2605;49.770;9.868;2023-08-01T15:36:05;27.00;99.90
5172;DHT22;2605;49.770;9.868;2023-08-01T15:38:32;26.70;99.90
5172;DHT22;2605;49.770;9.868;2023-08-01T15:40:59;24.80;99.90
5172;DHT22;2605;49.770;9.868;2023-08-01T15:43:29;25.80;99.90
5172;DHT22;2605;49.770;9.868;2023-08-01T15:45:55;23.80;99.90
5172;DHT22;2605;49.770;9.868;2023-08-01T15:48:21;22.70;99.90
5172;DHT22;2605;49.770;9.868;2023-08-01T15:50:46;22.10;99.90
5172;DHT22;2605;49.770;9.868;2023-08-01T15:53:12;21.20;99.90
5172;DHT22;2605;49.770;9.868;2023-08-01T15:55:37;20.80;99.90
5172;DHT22;2605;49.770;9.868;2023-08-01T15:58:03;20.40;99.90